createdAt,value
2018-06-13T00:01:57.650Z,6.93
2018-06-13T00:04:26.106Z,6.70
2018-06-13T00:06:54.552Z,5.97
2018-06-13T00:09:23.019Z,5.50
2018-06-13T00:11:51.493Z,6.23
2018-06-13T00:14:20.003Z,4.97
2018-06-13T00:16:48.547Z,5.73
2018-06-13T00:19:16.997Z,5.90
2018-06-13T00:21:45.448Z,6.63
2018-06-13T00:24:13.885Z,4.60
2018-06-13T00:26:42.344Z,9.57
2018-06-13T00:29:10.827Z,6.17
2018-06-13T00:31:39.269Z,7.23
2018-06-13T00:34:07.745Z,5.47
2018-06-13T00:36:36.193Z,7.67
2018-06-13T00:39:06.641Z,7.57
2018-06-13T00:41:35.089Z,6.63
2018-06-13T00:44:03.587Z,6.03
2018-06-13T00:46:33.129Z,4.77
2018-06-13T00:49:01.570Z,6.07
2018-06-13T00:51:31.205Z,8.40
2018-06-13T00:53:59.702Z,5.13
2018-06-13T00:56:29.541Z,7.37
2018-06-13T00:58:58.127Z,6.23
2018-06-13T01:01:26.690Z,7.13
2018-06-13T01:03:55.168Z,6.53
2018-06-13T01:06:23.604Z,5.00
2018-06-13T01:08:52.211Z,5.83
2018-06-13T01:11:20.727Z,8.50
2018-06-13T01:13:49.216Z,11.27
2018-06-13T01:16:18.299Z,8.37
2018-06-13T01:18:46.774Z,5.33
2018-06-13T01:21:15.806Z,8.27
2018-06-13T01:23:44.247Z,5.83
2018-06-13T01:26:12.756Z,8.20
2018-06-13T01:28:48.500Z,5.27
2018-06-13T01:31:17.050Z,6.70
2018-06-13T01:33:45.490Z,8.17
2018-06-13T01:36:14.242Z,7.30
2018-06-13T01:38:42.696Z,6.03
2018-06-13T01:41:11.151Z,6.63
2018-06-13T01:43:39.592Z,6.93
2018-06-13T01:46:08.074Z,5.23
2018-06-13T01:48:36.516Z,6.50
2018-06-13T01:51:04.968Z,5.53
2018-06-13T01:53:33.446Z,6.90
2018-06-13T01:56:01.912Z,7.80
2018-06-13T01:58:30.354Z,7.70
2018-06-13T02:00:58.819Z,5.97
2018-06-13T02:03:27.336Z,6.77
2018-06-13T02:05:55.900Z,6.43
2018-06-13T02:08:24.223Z,6.73
2018-06-13T02:10:52.999Z,5.57
2018-06-13T02:13:21.434Z,5.27
2018-06-13T02:15:49.968Z,4.57
2018-06-13T02:18:18.404Z,5.53
2018-06-13T02:20:46.880Z,8.13
2018-06-13T02:23:15.490Z,6.93
2018-06-13T02:25:44.499Z,7.20
2018-06-13T02:28:12.921Z,5.90
2018-06-13T02:30:41.362Z,7.20
2018-06-13T02:33:09.801Z,6.30
2018-06-13T02:35:38.249Z,8.57
2018-06-13T02:38:06.690Z,5.93
2018-06-13T02:40:35.256Z,9.37
2018-06-13T02:43:03.702Z,7.07
2018-06-13T02:45:32.155Z,9.00
2018-06-13T02:48:01.841Z,9.17
2018-06-13T02:50:30.299Z,11.23
2018-06-13T02:52:58.736Z,8.77
2018-06-13T02:55:27.167Z,7.90
2018-06-13T02:57:55.607Z,8.43
2018-06-13T03:00:24.332Z,12.03
2018-06-13T03:02:52.990Z,8.63
2018-06-13T03:05:21.439Z,12.17
2018-06-13T03:07:49.902Z,10.87
2018-06-13T03:10:20.111Z,10.97
2018-06-13T03:12:48.693Z,13.30
2018-06-13T03:15:17.127Z,8.37
2018-06-13T03:17:45.661Z,8.60
2018-06-13T03:20:14.137Z,8.73
2018-06-13T03:22:42.580Z,8.17
2018-06-13T03:25:11.022Z,8.17
2018-06-13T03:27:39.467Z,15.53
2018-06-13T03:30:08.065Z,11.50
2018-06-13T03:32:36.201Z,11.60
2018-06-13T03:35:04.690Z,11.03
2018-06-13T03:37:33.134Z,9.83
2018-06-13T03:40:01.701Z,12.00
2018-06-13T03:42:30.165Z,9.87
2018-06-13T03:44:58.615Z,9.03
2018-06-13T03:47:27.033Z,9.37
2018-06-13T03:49:55.479Z,11.70
2018-06-13T03:52:23.932Z,11.43
2018-06-13T03:54:52.365Z,10.13
2018-06-13T03:57:20.805Z,12.27
2018-06-13T03:59:49.269Z,8.43
2018-06-13T04:02:17.823Z,9.43
2018-06-13T04:04:46.400Z,11.10
2018-06-13T04:07:15.301Z,8.50
2018-06-13T04:09:43.757Z,9.97
2018-06-13T04:12:12.292Z,10.37
2018-06-13T04:14:40.860Z,10.40
2018-06-13T04:17:08.979Z,8.83
2018-06-13T04:19:38.545Z,7.83
2018-06-13T04:22:07.040Z,11.50
2018-06-13T04:24:35.486Z,10.33
2018-06-13T04:27:03.935Z,13.60
2018-06-13T04:29:32.388Z,13.97
2018-06-13T04:32:00.842Z,11.60
2018-06-13T04:34:28.975Z,9.20
2018-06-13T04:36:57.651Z,12.10
2018-06-13T04:39:26.090Z,11.40
2018-06-13T04:41:54.573Z,11.60
2018-06-13T04:44:23.141Z,10.80
2018-06-13T04:46:51.652Z,10.03
2018-06-13T04:49:20.078Z,9.90
2018-06-13T04:51:48.537Z,13.03
2018-06-13T04:54:16.952Z,9.63
2018-06-13T04:56:46.460Z,10.27
2018-06-13T04:59:14.913Z,11.40
2018-06-13T05:01:43.360Z,10.77
2018-06-13T05:04:11.802Z,12.20
2018-06-13T05:06:40.546Z,9.73
2018-06-13T05:09:09.215Z,11.73
2018-06-13T05:11:37.684Z,13.03
2018-06-13T05:14:06.160Z,14.70
2018-06-13T05:16:34.632Z,11.53
2018-06-13T05:19:03.079Z,10.53
2018-06-13T05:21:33.171Z,11.50
2018-06-13T05:24:01.664Z,10.77
2018-06-13T05:26:30.389Z,11.13
2018-06-13T05:28:58.871Z,10.73
2018-06-13T05:31:27.387Z,10.77
2018-06-13T05:33:56.111Z,10.90
2018-06-13T05:36:24.662Z,13.17
2018-06-13T05:38:53.197Z,9.87
2018-06-13T05:41:21.699Z,10.73
2018-06-13T05:43:50.240Z,9.53
2018-06-13T05:46:18.792Z,12.10
2018-06-13T05:48:47.228Z,10.90
2018-06-13T05:51:15.821Z,10.70
2018-06-13T05:53:44.289Z,11.47
2018-06-13T05:56:12.748Z,12.83
2018-06-13T05:58:41.327Z,11.20
2018-06-13T06:01:09.821Z,11.43
2018-06-13T06:03:38.394Z,13.00
2018-06-13T06:06:06.957Z,9.70
2018-06-13T06:08:35.433Z,14.40
2018-06-13T06:11:04.010Z,7.60
2018-06-13T06:13:32.492Z,10.17
2018-06-13T06:16:00.949Z,9.23
2018-06-13T06:18:29.583Z,9.63
2018-06-13T06:20:58.042Z,10.00
2018-06-13T06:23:26.551Z,13.10
2018-06-13T06:25:55.130Z,12.30
2018-06-13T06:28:23.560Z,13.93
2018-06-13T06:30:52.065Z,9.63
2018-06-13T06:33:20.507Z,8.30
2018-06-13T06:35:49.060Z,13.13
2018-06-13T06:38:17.494Z,10.83
2018-06-13T06:40:45.946Z,9.60
2018-06-13T06:43:14.402Z,9.10
2018-06-13T06:45:42.837Z,8.43
2018-06-13T06:48:11.461Z,10.73
2018-06-13T06:50:40.018Z,7.77
2018-06-13T06:53:08.485Z,10.13
2018-06-13T06:55:37.025Z,10.53
2018-06-13T06:58:05.642Z,9.97
2018-06-13T07:00:34.120Z,7.67
2018-06-13T07:03:02.568Z,8.70
2018-06-13T07:05:31.038Z,9.80
2018-06-13T07:07:59.471Z,14.27
2018-06-13T07:10:27.979Z,9.23
2018-06-13T07:12:56.577Z,9.70
2018-06-13T07:15:25.144Z,7.27
2018-06-13T07:17:55.057Z,8.37
2018-06-13T07:20:23.544Z,8.57
2018-06-13T07:22:51.989Z,8.40
2018-06-13T07:25:20.543Z,7.43
2018-06-13T07:27:49.003Z,8.17
2018-06-13T07:30:17.477Z,8.00
2018-06-13T07:32:45.933Z,4.70
2018-06-13T07:35:14.403Z,7.50
2018-06-13T07:37:42.865Z,8.10
2018-06-13T07:40:11.302Z,7.87
2018-06-13T07:42:39.459Z,10.00
2018-06-13T07:45:08.627Z,5.47
2018-06-13T07:47:37.111Z,9.77
2018-06-13T07:50:05.768Z,5.97
2018-06-13T07:52:34.341Z,5.80
2018-06-13T07:55:03.055Z,4.83
2018-06-13T07:57:31.643Z,4.23
2018-06-13T08:00:00.079Z,5.10
2018-06-13T08:02:28.882Z,5.30
2018-06-13T08:04:57.351Z,7.17
2018-06-13T08:07:25.809Z,3.70
2018-06-13T08:09:54.235Z,5.10
2018-06-13T08:12:22.382Z,6.77
2018-06-13T08:14:50.804Z,5.30
2018-06-13T08:17:19.234Z,3.87
2018-06-13T08:19:48.365Z,5.23
2018-06-13T08:22:16.813Z,5.40
2018-06-13T08:24:52.500Z,6.37
2018-06-13T08:27:21.329Z,4.17
2018-06-13T08:29:49.755Z,5.17
2018-06-13T08:32:18.256Z,5.80
2018-06-13T08:34:46.731Z,5.97
2018-06-13T08:37:15.154Z,3.87
2018-06-13T08:39:43.719Z,7.73
2018-06-13T08:42:12.182Z,7.43
2018-06-13T08:44:40.636Z,5.03
2018-06-13T08:47:09.086Z,5.43
2018-06-13T08:49:37.613Z,3.73
2018-06-13T08:52:06.186Z,7.40
2018-06-13T08:54:34.730Z,6.20
2018-06-13T08:57:03.190Z,5.70
2018-06-13T08:59:31.630Z,3.47
2018-06-13T09:02:00.065Z,7.17
2018-06-13T09:04:28.558Z,5.70
2018-06-13T09:06:57.119Z,5.57
2018-06-13T09:09:25.600Z,6.77
2018-06-13T09:11:54.039Z,6.90
2018-06-13T09:14:22.588Z,6.67
2018-06-13T09:16:51.158Z,7.10
2018-06-13T09:19:20.076Z,5.57
2018-06-13T09:21:48.654Z,4.77
2018-06-13T09:24:17.122Z,12.80
2018-06-13T09:26:45.642Z,6.73
2018-06-13T09:29:14.166Z,3.70
2018-06-13T09:31:42.744Z,7.03
2018-06-13T09:34:11.196Z,2.83
2018-06-13T09:36:39.640Z,7.03
2018-06-13T09:39:08.524Z,5.80
2018-06-13T09:41:42.235Z,5.00
2018-06-13T09:44:10.696Z,3.67
2018-06-13T09:46:39.175Z,6.13
2018-06-13T09:49:07.636Z,2.67
2018-06-13T09:51:36.099Z,4.83
2018-06-13T09:54:05.004Z,5.30
2018-06-13T09:56:33.506Z,4.10
2018-06-13T09:59:07.222Z,4.00
2018-06-13T10:01:41.008Z,4.87
2018-06-13T10:04:09.440Z,3.10
2018-06-13T10:06:37.883Z,3.60
2018-06-13T10:09:07.894Z,3.20
2018-06-13T10:11:36.592Z,2.93
2018-06-13T10:14:05.171Z,4.20
2018-06-13T10:16:33.624Z,6.07
2018-06-13T10:19:01.798Z,4.27
2018-06-13T10:21:30.106Z,10.33
2018-06-13T10:23:58.603Z,4.00
2018-06-13T10:26:27.151Z,2.40
2018-06-13T10:28:56.869Z,5.83
2018-06-13T10:31:25.370Z,4.00
2018-06-13T10:33:53.949Z,3.90
2018-06-13T10:36:22.381Z,8.57
2018-06-13T10:38:50.930Z,2.47
2018-06-13T10:41:19.421Z,5.10
2018-06-13T10:43:47.908Z,5.50
2018-06-13T10:46:16.458Z,3.80
2018-06-13T10:48:44.965Z,3.67
2018-06-13T10:51:13.407Z,4.27
2018-06-13T10:53:41.907Z,6.47
2018-06-13T10:56:10.415Z,3.83
2018-06-13T10:58:38.848Z,6.63
2018-06-13T11:01:07.326Z,5.87
2018-06-13T11:03:35.849Z,2.07
2018-06-13T11:06:04.319Z,6.43
2018-06-13T11:08:32.867Z,5.67
2018-06-13T11:11:01.381Z,4.30
2018-06-13T11:13:29.845Z,6.30
2018-06-13T11:15:58.327Z,6.43
2018-06-13T11:18:26.970Z,4.17
2018-06-13T11:20:55.435Z,6.40
2018-06-13T11:23:24.065Z,7.83
2018-06-13T11:25:52.554Z,4.80
2018-06-13T11:28:20.966Z,10.60
2018-06-13T11:30:49.560Z,6.00
2018-06-13T11:33:18.022Z,5.63
2018-06-13T11:35:46.459Z,5.73
2018-06-13T11:38:14.900Z,6.53
2018-06-13T11:40:43.335Z,5.87
2018-06-13T11:43:12.960Z,4.40
2018-06-13T11:45:41.394Z,5.13
2018-06-13T11:48:09.982Z,5.53
2018-06-13T11:50:38.433Z,5.80
2018-06-13T11:53:06.900Z,5.27
2018-06-13T11:55:35.438Z,6.67
2018-06-13T11:58:03.944Z,5.97
2018-06-13T12:00:32.386Z,6.43
2018-06-13T12:03:00.920Z,8.27
2018-06-13T12:05:29.394Z,6.30
2018-06-13T12:07:57.870Z,5.57
2018-06-13T12:10:26.390Z,9.30
2018-06-13T12:12:54.934Z,7.30
2018-06-13T12:15:23.442Z,4.77
2018-06-13T12:17:51.900Z,3.87
2018-06-13T12:20:20.030Z,6.83
2018-06-13T12:22:48.494Z,4.47
2018-06-13T12:25:16.959Z,8.67
2018-06-13T12:27:45.412Z,4.40
2018-06-13T12:30:13.847Z,6.53
2018-06-13T12:32:42.540Z,5.67
2018-06-13T12:35:11.036Z,5.93
2018-06-13T12:37:46.797Z,6.77
2018-06-13T12:40:15.424Z,6.57
2018-06-13T12:42:44.397Z,7.23
2018-06-13T12:45:12.914Z,7.47
2018-06-13T12:47:41.388Z,6.60
2018-06-13T12:50:09.529Z,8.23
2018-06-13T12:52:38.016Z,8.83
2018-06-13T12:55:06.505Z,5.80
2018-06-13T12:57:34.948Z,11.30
2018-06-13T13:00:03.510Z,7.50
2018-06-13T13:02:31.961Z,7.20
2018-06-13T13:05:00.410Z,6.40
2018-06-13T13:07:28.868Z,6.50
2018-06-13T13:09:57.321Z,6.37
2018-06-13T13:12:25.926Z,6.90
2018-06-13T13:14:54.433Z,7.93
2018-06-13T13:17:22.961Z,7.80
2018-06-13T13:19:51.417Z,6.57
2018-06-13T13:22:19.891Z,6.20
2018-06-13T13:24:48.354Z,5.43
2018-06-13T13:27:16.805Z,5.43
2018-06-13T13:29:45.265Z,5.97
2018-06-13T13:32:13.932Z,3.57
2018-06-13T13:34:42.425Z,8.43
2018-06-13T13:37:10.884Z,7.97
2018-06-13T13:39:39.405Z,5.47
2018-06-13T13:42:07.857Z,4.37
2018-06-13T13:44:36.340Z,7.80
2018-06-13T13:47:04.799Z,4.83
2018-06-13T13:49:33.281Z,5.57
2018-06-13T13:52:07.078Z,4.47
2018-06-13T13:54:35.602Z,6.07
2018-06-13T13:57:04.093Z,6.17
2018-06-13T13:59:32.697Z,4.87
2018-06-13T14:02:01.268Z,6.33
2018-06-13T14:04:29.376Z,7.57
2018-06-13T14:06:57.931Z,6.70
2018-06-13T14:09:26.385Z,7.57
2018-06-13T14:11:54.883Z,7.13
2018-06-13T14:14:23.360Z,5.70
2018-06-13T14:16:51.822Z,4.73
2018-06-13T14:19:20.379Z,7.53
2018-06-13T14:21:48.846Z,5.17
2018-06-13T14:24:17.303Z,6.70
2018-06-13T14:26:45.773Z,6.03
2018-06-13T14:29:14.320Z,4.47
2018-06-13T14:31:42.857Z,7.83
2018-06-13T14:34:11.321Z,4.73
2018-06-13T14:36:39.764Z,5.40
2018-06-13T14:39:10.141Z,8.10
2018-06-13T14:41:38.589Z,6.37
2018-06-13T14:44:07.737Z,6.60
2018-06-13T14:46:36.531Z,4.80
2018-06-13T14:49:05.082Z,5.40
2018-06-13T14:51:33.525Z,11.00
2018-06-13T14:54:02.081Z,7.10
2018-06-13T14:56:32.027Z,5.83
2018-06-13T14:59:01.818Z,6.03
2018-06-13T15:01:30.784Z,4.93
2018-06-13T15:03:59.237Z,7.17
2018-06-13T15:06:27.705Z,6.07
2018-06-13T15:08:56.343Z,5.90
2018-06-13T15:11:25.131Z,9.23
2018-06-13T15:13:53.715Z,6.70
2018-06-13T15:16:22.393Z,6.40
2018-06-13T15:18:50.854Z,4.17
2018-06-13T15:21:19.558Z,6.10
2018-06-13T15:23:48.005Z,7.10
2018-06-13T15:26:16.496Z,4.17
2018-06-13T15:28:44.937Z,4.43
2018-06-13T15:31:13.443Z,4.77
2018-06-13T15:33:41.921Z,6.73
2018-06-13T15:36:10.418Z,7.77
2018-06-13T15:38:38.887Z,9.60
2018-06-13T15:41:07.594Z,6.83
2018-06-13T15:43:36.061Z,6.87
2018-06-13T15:46:04.814Z,4.83
2018-06-13T15:48:33.268Z,5.83
2018-06-13T15:51:02.394Z,5.07
2018-06-13T15:53:30.920Z,6.50
2018-06-13T15:55:59.519Z,6.67
2018-06-13T15:58:28.003Z,7.33
2018-06-13T16:00:56.464Z,7.03
2018-06-13T16:03:25.281Z,6.83
2018-06-13T16:05:53.934Z,6.13
2018-06-13T16:08:22.521Z,4.60
2018-06-13T16:10:51.114Z,5.60
2018-06-13T16:13:19.560Z,3.77
2018-06-13T16:15:48.038Z,5.43
2018-06-13T16:18:16.597Z,5.13
2018-06-13T16:20:45.188Z,3.43
2018-06-13T16:23:13.686Z,5.83
2018-06-13T16:25:42.665Z,4.93
2018-06-13T16:28:11.247Z,8.43
2018-06-13T16:30:39.706Z,5.40
2018-06-13T16:33:07.847Z,6.57
2018-06-13T16:35:36.372Z,5.90
2018-06-13T16:38:05.203Z,3.87
2018-06-13T16:40:33.741Z,5.70
2018-06-13T16:43:02.455Z,5.43
2018-06-13T16:45:31.027Z,3.57
2018-06-13T16:47:59.484Z,4.30
2018-06-13T16:50:39.378Z,5.23
2018-06-13T16:53:18.423Z,6.83
2018-06-13T16:55:46.883Z,4.53
2018-06-13T16:58:15.447Z,4.47
2018-06-13T17:00:43.904Z,5.33
2018-06-13T17:03:12.451Z,7.13
2018-06-13T17:05:40.899Z,7.37
2018-06-13T17:08:09.486Z,6.00
2018-06-13T17:10:37.949Z,4.73
2018-06-13T17:13:06.434Z,5.90
2018-06-13T17:15:34.969Z,5.83
2018-06-13T17:18:03.438Z,4.83
2018-06-13T17:20:31.887Z,6.00
2018-06-13T17:23:00.317Z,4.83
2018-06-13T17:25:28.917Z,5.47
2018-06-13T17:27:57.491Z,4.93
2018-06-13T17:30:26.052Z,5.07
2018-06-13T17:32:54.510Z,2.70
2018-06-13T17:35:23.013Z,5.60
2018-06-13T17:37:51.481Z,4.20
2018-06-13T17:40:19.918Z,6.63
2018-06-13T17:42:48.455Z,5.80
2018-06-13T17:45:16.885Z,3.80
2018-06-13T17:47:45.381Z,14.33
2018-06-13T17:50:13.821Z,6.43
2018-06-13T17:52:42.308Z,9.27
2018-06-13T17:55:10.788Z,9.00
2018-06-13T17:57:39.261Z,7.77
2018-06-13T18:00:07.832Z,5.97
2018-06-13T18:02:36.419Z,6.83
2018-06-13T18:05:05.051Z,7.03
2018-06-13T18:07:33.577Z,6.33
2018-06-13T18:10:02.062Z,8.37
2018-06-13T18:12:30.719Z,5.97
2018-06-13T18:14:59.320Z,5.77
2018-06-13T18:17:28.024Z,9.47
2018-06-13T18:19:56.460Z,7.30
2018-06-13T18:22:24.917Z,7.50
2018-06-13T18:24:53.412Z,8.40
2018-06-13T18:27:21.916Z,5.73
2018-06-13T18:29:50.197Z,7.50
2018-06-13T18:32:18.779Z,6.67
2018-06-13T18:34:47.300Z,5.17
2018-06-13T18:37:15.820Z,5.40
2018-06-13T18:39:44.312Z,5.63
2018-06-13T18:42:12.474Z,5.37
2018-06-13T18:44:41.056Z,7.00
2018-06-13T18:47:09.602Z,8.07
2018-06-13T18:49:38.267Z,4.43
2018-06-13T18:52:06.801Z,5.07
2018-06-13T18:54:35.244Z,6.73
2018-06-13T18:57:03.740Z,5.73
2018-06-13T18:59:32.274Z,4.77
2018-06-13T19:02:01.001Z,5.67
2018-06-13T19:04:29.530Z,4.40
2018-06-13T19:06:58.055Z,3.63
2018-06-13T19:09:26.696Z,6.63
2018-06-13T19:11:55.167Z,6.13
2018-06-13T19:14:23.628Z,5.20
2018-06-13T19:16:52.275Z,4.60
2018-06-13T19:19:20.789Z,4.90
2018-06-13T19:21:49.576Z,5.33
2018-06-13T19:24:18.048Z,5.40
2018-06-13T19:26:46.655Z,6.77
2018-06-13T19:29:15.135Z,8.40
2018-06-13T19:31:43.625Z,6.47
2018-06-13T19:34:12.198Z,5.73
2018-06-13T19:36:40.701Z,6.73
2018-06-13T19:39:10.073Z,5.30
2018-06-13T19:41:38.542Z,8.47
2018-06-13T19:44:07.104Z,6.50
2018-06-13T19:46:35.685Z,7.47
2018-06-13T19:49:04.253Z,5.03
2018-06-13T19:51:32.892Z,5.10
2018-06-13T19:54:06.645Z,5.87
2018-06-13T19:56:35.175Z,6.73
2018-06-13T19:59:03.820Z,6.80
2018-06-13T20:01:32.372Z,4.10
2018-06-13T20:04:06.255Z,5.53
2018-06-13T20:06:37.446Z,7.13
2018-06-13T20:09:08.040Z,5.53
2018-06-13T20:11:36.663Z,9.37
2018-06-13T20:14:10.512Z,8.03
2018-06-13T20:16:51.606Z,8.30
2018-06-13T20:19:25.628Z,6.10
2018-06-13T20:21:55.629Z,7.40
2018-06-13T20:24:24.162Z,8.33
2018-06-13T20:26:57.835Z,7.17
2018-06-13T20:29:31.540Z,10.67
2018-06-13T20:32:00.046Z,9.57
2018-06-13T20:34:28.530Z,6.33
2018-06-13T20:36:57.026Z,6.63
2018-06-13T20:39:25.212Z,7.77
2018-06-13T20:41:53.765Z,9.20
2018-06-13T20:44:22.187Z,8.37
2018-06-13T20:46:50.674Z,7.40
2018-06-13T20:49:19.160Z,9.53
2018-06-13T20:51:47.610Z,10.77
2018-06-13T20:54:16.138Z,10.27
2018-06-13T20:56:44.649Z,6.90
2018-06-13T20:59:13.101Z,7.87
2018-06-13T21:01:41.547Z,7.13
2018-06-13T21:04:10.020Z,8.27
2018-06-13T21:06:38.481Z,6.93
2018-06-13T21:09:08.624Z,7.40
2018-06-13T21:11:37.536Z,8.53
2018-06-13T21:14:05.985Z,8.57
2018-06-13T21:16:34.476Z,7.87
2018-06-13T21:19:02.927Z,6.97
2018-06-13T21:21:31.550Z,5.33
2018-06-13T21:24:00.029Z,6.37
2018-06-13T21:26:28.498Z,5.67
2018-06-13T21:28:56.915Z,6.93
2018-06-13T21:31:25.362Z,6.13
2018-06-13T21:33:54.085Z,5.33
2018-06-13T21:36:22.668Z,7.30
2018-06-13T21:38:50.965Z,5.90
2018-06-13T21:41:19.511Z,9.10
2018-06-13T21:43:48.036Z,5.27
2018-06-13T21:46:16.577Z,9.03
2018-06-13T21:48:45.011Z,5.60
2018-06-13T21:51:13.642Z,9.00
2018-06-13T21:53:42.080Z,10.87
2018-06-13T21:56:10.510Z,8.97
2018-06-13T21:58:40.148Z,10.07
2018-06-13T22:01:08.728Z,8.73
2018-06-13T22:03:37.168Z,9.00
2018-06-13T22:06:05.600Z,8.27
2018-06-13T22:08:34.076Z,6.77
2018-06-13T22:11:02.648Z,7.93
2018-06-13T22:13:31.409Z,9.57
2018-06-13T22:15:59.879Z,11.30
2018-06-13T22:18:28.506Z,7.53
2018-06-13T22:20:56.938Z,9.23
2018-06-13T22:23:25.466Z,9.53
2018-06-13T22:25:53.917Z,13.53
2018-06-13T22:28:22.377Z,9.17
2018-06-13T22:30:50.880Z,10.23
2018-06-13T22:33:19.413Z,9.43
2018-06-13T22:35:47.880Z,8.30
2018-06-13T22:38:16.459Z,9.33
2018-06-13T22:40:44.892Z,11.10
2018-06-13T22:43:13.411Z,9.47
2018-06-13T22:45:41.902Z,8.97
2018-06-13T22:48:10.364Z,9.60
2018-06-13T22:50:38.950Z,8.37
2018-06-13T22:53:07.436Z,8.30
2018-06-13T22:55:36.012Z,11.63
2018-06-13T22:58:04.497Z,10.70
2018-06-13T23:01:13.060Z,8.63
2018-06-13T23:03:41.478Z,12.23
2018-06-13T23:06:11.027Z,10.43
2018-06-13T23:08:39.954Z,9.67
2018-06-13T23:11:08.407Z,10.63
2018-06-13T23:13:37.010Z,9.90
2018-06-13T23:16:05.573Z,9.43
2018-06-13T23:18:34.133Z,10.77
2018-06-13T23:21:02.583Z,12.33
2018-06-13T23:23:31.104Z,9.17
2018-06-13T23:25:59.597Z,10.37
2018-06-13T23:28:28.207Z,10.03
2018-06-13T23:30:56.645Z,8.10
2018-06-13T23:33:25.165Z,8.80
2018-06-13T23:35:53.609Z,10.67
2018-06-13T23:38:22.057Z,9.67
2018-06-13T23:40:50.545Z,11.47
2018-06-13T23:43:18.973Z,8.00
2018-06-13T23:45:47.439Z,11.37
2018-06-13T23:48:15.865Z,10.10
2018-06-13T23:50:44.303Z,9.87
2018-06-13T23:53:12.930Z,11.20
2018-06-13T23:55:41.361Z,8.63
2018-06-13T23:58:09.819Z,8.87
